Página principal
METAR-TAF:

METAR-TAF

Aeroportos :

Aeroporto Internacional de Bagdad

Bagdá, Iraque

latitude: 33-15-45N, longitude: 44-14-04E, altura: 35 m

Observação actual do tempo

O boletim foi feito há 39 minutos, às 02:30 UTC
Vento 11 kt de oes-noroeste
Temperatura 29°C
Humidade 37%
Pressão 1003 hPa
Visibilidade 10 km ou mais
sem nuvens abaixo de 1500 metros e sem cumulonimbus

METAR: ORBI 240230Z 30011KT CAVOK 29/13 Q1003

Hora: 06:09 (03:09 UTC)

Previsão

O boletim foi feito há 5 horas e 9 minutos, às 22:00 UTC
Previsão válida de 24 às 00 UTC a 24 às 24 UTC
Vento 10 kt de oes-noroeste
Visibilidade: 8000 m

TAF: ORBI 232200Z 2400/2424 30010KT 8000 NSC

Observações e previsões do tempo de mais de 4000 aeroportos (mensagens METAR e TAF).

As estações disponíveis são os pontos amarelos e vermelhos sobre o mapa.

Mova o rato sobre o mapa para ver o nome da estação.

Depois clique no ponto para visualizar as observações e previsões meteorológicas.

Para alterar o mapa : clique nos botões verdes com uma cruz preta para aumentar o zoom; no botão verde com uma pitada de zoom; ou nas setas verdes para mapas adjacentes.


METAR-TAF: